sensor_id;sensor_type;location;lat;lon;timestamp;P1;durP1;ratioP1;P2;durP2;ratioP2
21128;SDS011;10722;51.910;8.352;2022-07-22T00:00:40;31.65;;;20.83;;
21128;SDS011;10722;51.910;8.352;2022-07-22T00:03:26;25.10;;;16.77;;
21128;SDS011;10722;51.910;8.352;2022-07-22T00:06:11;25.30;;;16.88;;
21128;SDS011;10722;51.910;8.352;2022-07-22T00:08:56;27.67;;;16.02;;
21128;SDS011;10722;51.910;8.352;2022-07-22T00:11:43;25.95;;;16.38;;
21128;SDS011;10722;51.910;8.352;2022-07-22T00:14:28;19.60;;;13.00;;
21128;SDS011;10722;51.910;8.352;2022-07-22T00:17:14;20.25;;;12.23;;
21128;SDS011;10722;51.910;8.352;2022-07-22T00:19:59;18.63;;;11.07;;
21128;SDS011;10722;51.910;8.352;2022-07-22T00:22:44;18.35;;;10.40;;
21128;SDS011;10722;51.910;8.352;2022-07-22T00:25:30;21.73;;;10.15;;
21128;SDS011;10722;51.910;8.352;2022-07-22T00:28:15;17.13;;;9.65;;
21128;SDS011;10722;51.910;8.352;2022-07-22T00:31:01;18.00;;;9.60;;
21128;SDS011;10722;51.910;8.352;2022-07-22T00:33:47;20.55;;;9.02;;
21128;SDS011;10722;51.910;8.352;2022-07-22T00:36:32;16.77;;;7.90;;
21128;SDS011;10722;51.910;8.352;2022-07-22T00:39:18;16.58;;;6.72;;
21128;SDS011;10722;51.910;8.352;2022-07-22T00:42:03;15.50;;;7.05;;
21128;SDS011;10722;51.910;8.352;2022-07-22T00:44:52;14.48;;;6.47;;
21128;SDS011;10722;51.910;8.352;2022-07-22T00:47:37;15.55;;;6.88;;
21128;SDS011;10722;51.910;8.352;2022-07-22T00:50:22;16.48;;;6.10;;
21128;SDS011;10722;51.910;8.352;2022-07-22T00:53:08;14.55;;;6.43;;
21128;SDS011;10722;51.910;8.352;2022-07-22T00:55:54;16.40;;;7.60;;
21128;SDS011;10722;51.910;8.352;2022-07-22T00:58:39;15.00;;;6.97;;
21128;SDS011;10722;51.910;8.352;2022-07-22T01:01:25;18.13;;;7.38;;
21128;SDS011;10722;51.910;8.352;2022-07-22T01:04:10;15.07;;;7.55;;
21128;SDS011;10722;51.910;8.352;2022-07-22T01:06:56;17.63;;;8.48;;
21128;SDS011;10722;51.910;8.352;2022-07-22T01:09:42;15.52;;;7.22;;
21128;SDS011;10722;51.910;8.352;2022-07-22T01:12:28;20.38;;;7.88;;
21128;SDS011;10722;51.910;8.352;2022-07-22T01:15:13;15.98;;;7.65;;
21128;SDS011;10722;51.910;8.352;2022-07-22T01:17:59;18.48;;;7.85;;
21128;SDS011;10722;51.910;8.352;2022-07-22T01:20:45;18.17;;;8.10;;
21128;SDS011;10722;51.910;8.352;2022-07-22T01:23:30;17.25;;;8.25;;
21128;SDS011;10722;51.910;8.352;2022-07-22T01:26:16;16.77;;;8.90;;
21128;SDS011;10722;51.910;8.352;2022-07-22T01:29:02;17.60;;;9.65;;
21128;SDS011;10722;51.910;8.352;2022-07-22T01:31:48;18.13;;;10.07;;
21128;SDS011;10722;51.910;8.352;2022-07-22T01:34:33;17.60;;;9.85;;
21128;SDS011;10722;51.910;8.352;2022-07-22T01:37:19;20.92;;;10.82;;
21128;SDS011;10722;51.910;8.352;2022-07-22T01:40:04;18.85;;;10.15;;
21128;SDS011;10722;51.910;8.352;2022-07-22T01:42:49;18.75;;;10.45;;
21128;SDS011;10722;51.910;8.352;2022-07-22T01:45:35;17.75;;;9.95;;
21128;SDS011;10722;51.910;8.352;2022-07-22T01:48:21;18.02;;;9.60;;
21128;SDS011;10722;51.910;8.352;2022-07-22T01:51:07;18.08;;;8.60;;
21128;SDS011;10722;51.910;8.352;2022-07-22T01:53:52;15.40;;;8.20;;
21128;SDS011;10722;51.910;8.352;2022-07-22T01:56:37;16.90;;;8.00;;
21128;SDS011;10722;51.910;8.352;2022-07-22T01:59:23;14.52;;;7.38;;
21128;SDS011;10722;51.910;8.352;2022-07-22T02:02:09;16.48;;;7.47;;
21128;SDS011;10722;51.910;8.352;2022-07-22T02:04:54;15.20;;;6.75;;
21128;SDS011;10722;51.910;8.352;2022-07-22T02:07:39;13.50;;;6.57;;
21128;SDS011;10722;51.910;8.352;2022-07-22T02:10:24;15.63;;;6.20;;
21128;SDS011;10722;51.910;8.352;2022-07-22T02:13:09;15.73;;;5.47;;
21128;SDS011;10722;51.910;8.352;2022-07-22T02:15:55;15.50;;;6.22;;
21128;SDS011;10722;51.910;8.352;2022-07-22T02:18:40;15.98;;;6.45;;
21128;SDS011;10722;51.910;8.352;2022-07-22T02:21:25;15.30;;;6.20;;
21128;SDS011;10722;51.910;8.352;2022-07-22T02:24:11;17.52;;;6.45;;
21128;SDS011;10722;51.910;8.352;2022-07-22T02:26:56;13.57;;;6.00;;
21128;SDS011;10722;51.910;8.352;2022-07-22T02:29:42;15.73;;;6.28;;
21128;SDS011;10722;51.910;8.352;2022-07-22T02:32:27;14.90;;;7.00;;
21128;SDS011;10722;51.910;8.352;2022-07-22T02:35:12;14.20;;;6.35;;
21128;SDS011;10722;51.910;8.352;2022-07-22T02:37:58;19.30;;;6.70;;
21128;SDS011;10722;51.910;8.352;2022-07-22T02:40:43;11.50;;;5.30;;
21128;SDS011;10722;51.910;8.352;2022-07-22T02:43:28;15.25;;;5.50;;
21128;SDS011;10722;51.910;8.352;2022-07-22T02:46:13;14.75;;;5.18;;
21128;SDS011;10722;51.910;8.352;2022-07-22T02:48:59;15.52;;;5.97;;
21128;SDS011;10722;51.910;8.352;2022-07-22T02:51:44;14.60;;;5.65;;
21128;SDS011;10722;51.910;8.352;2022-07-22T02:54:30;12.68;;;5.82;;
21128;SDS011;10722;51.910;8.352;2022-07-22T02:57:15;13.82;;;5.57;;
21128;SDS011;10722;51.910;8.352;2022-07-22T03:00:01;19.95;;;6.50;;
21128;SDS011;10722;51.910;8.352;2022-07-22T03:02:46;13.95;;;5.45;;
21128;SDS011;10722;51.910;8.352;2022-07-22T03:05:32;12.55;;;5.47;;
21128;SDS011;10722;51.910;8.352;2022-07-22T03:08:17;16.27;;;6.00;;
21128;SDS011;10722;51.910;8.352;2022-07-22T03:11:02;14.70;;;6.65;;
21128;SDS011;10722;51.910;8.352;2022-07-22T03:13:48;14.65;;;5.88;;
21128;SDS011;10722;51.910;8.352;2022-07-22T03:16:33;13.88;;;6.28;;
21128;SDS011;10722;51.910;8.352;2022-07-22T03:19:19;14.43;;;6.40;;
21128;SDS011;10722;51.910;8.352;2022-07-22T03:22:04;14.40;;;7.50;;
21128;SDS011;10722;51.910;8.352;2022-07-22T03:24:49;18.48;;;7.63;;
21128;SDS011;10722;51.910;8.352;2022-07-22T03:27:35;15.40;;;7.20;;
21128;SDS011;10722;51.910;8.352;2022-07-22T03:30:20;17.80;;;6.68;;
21128;SDS011;10722;51.910;8.352;2022-07-22T03:33:06;15.05;;;6.82;;
21128;SDS011;10722;51.910;8.352;2022-07-22T03:35:51;14.57;;;6.43;;
21128;SDS011;10722;51.910;8.352;2022-07-22T03:38:37;14.02;;;6.25;;
21128;SDS011;10722;51.910;8.352;2022-07-22T03:41:22;14.73;;;6.00;;
21128;SDS011;10722;51.910;8.352;2022-07-22T03:44:07;13.73;;;6.20;;
21128;SDS011;10722;51.910;8.352;2022-07-22T03:46:53;17.45;;;5.82;;
21128;SDS011;10722;51.910;8.352;2022-07-22T03:49:38;16.88;;;6.45;;
21128;SDS011;10722;51.910;8.352;2022-07-22T03:52:23;16.13;;;6.10;;
21128;SDS011;10722;51.910;8.352;2022-07-22T03:55:09;15.30;;;6.70;;
21128;SDS011;10722;51.910;8.352;2022-07-22T03:57:54;14.68;;;6.72;;
21128;SDS011;10722;51.910;8.352;2022-07-22T04:00:40;15.30;;;6.63;;
21128;SDS011;10722;51.910;8.352;2022-07-22T04:03:25;13.85;;;6.60;;
21128;SDS011;10722;51.910;8.352;2022-07-22T04:06:11;13.55;;;6.68;;
21128;SDS011;10722;51.910;8.352;2022-07-22T04:08:56;14.57;;;6.32;;
21128;SDS011;10722;51.910;8.352;2022-07-22T04:11:41;16.58;;;6.70;;
21128;SDS011;10722;51.910;8.352;2022-07-22T04:14:27;14.43;;;5.75;;
21128;SDS011;10722;51.910;8.352;2022-07-22T04:17:12;12.73;;;5.57;;
21128;SDS011;10722;51.910;8.352;2022-07-22T04:20:00;13.88;;;6.28;;
21128;SDS011;10722;51.910;8.352;2022-07-22T04:22:45;15.63;;;5.90;;
21128;SDS011;10722;51.910;8.352;2022-07-22T04:25:30;15.27;;;5.90;;
21128;SDS011;10722;51.910;8.352;2022-07-22T04:28:16;12.40;;;5.28;;
21128;SDS011;10722;51.910;8.352;2022-07-22T04:31:02;14.63;;;5.60;;
21128;SDS011;10722;51.910;8.352;2022-07-22T04:33:48;13.63;;;5.90;;
21128;SDS011;10722;51.910;8.352;2022-07-22T04:36:33;17.70;;;6.30;;
21128;SDS011;10722;51.910;8.352;2022-07-22T04:39:19;14.52;;;5.90;;
21128;SDS011;10722;51.910;8.352;2022-07-22T04:42:04;14.73;;;6.13;;
21128;SDS011;10722;51.910;8.352;2022-07-22T04:44:50;14.27;;;6.07;;
21128;SDS011;10722;51.910;8.352;2022-07-22T04:47:35;13.90;;;5.88;;
21128;SDS011;10722;51.910;8.352;2022-07-22T04:50:20;13.10;;;5.97;;
21128;SDS011;10722;51.910;8.352;2022-07-22T04:53:06;14.23;;;6.60;;
21128;SDS011;10722;51.910;8.352;2022-07-22T04:55:53;15.52;;;6.75;;
21128;SDS011;10722;51.910;8.352;2022-07-22T04:58:38;13.15;;;6.32;;
21128;SDS011;10722;51.910;8.352;2022-07-22T05:01:23;16.02;;;6.80;;
21128;SDS011;10722;51.910;8.352;2022-07-22T05:04:09;16.83;;;6.45;;
21128;SDS011;10722;51.910;8.352;2022-07-22T05:06:54;15.60;;;6.45;;
21128;SDS011;10722;51.910;8.352;2022-07-22T05:09:39;14.85;;;6.32;;
21128;SDS011;10722;51.910;8.352;2022-07-22T05:12:25;14.00;;;6.70;;
21128;SDS011;10722;51.910;8.352;2022-07-22T05:15:10;18.33;;;7.43;;
21128;SDS011;10722;51.910;8.352;2022-07-22T05:17:55;15.15;;;7.32;;
21128;SDS011;10722;51.910;8.352;2022-07-22T05:20:40;16.30;;;7.18;;
21128;SDS011;10722;51.910;8.352;2022-07-22T05:23:26;17.92;;;8.00;;
21128;SDS011;10722;51.910;8.352;2022-07-22T05:26:11;16.65;;;8.35;;
21128;SDS011;10722;51.910;8.352;2022-07-22T05:28:56;17.30;;;8.20;;
21128;SDS011;10722;51.910;8.352;2022-07-22T05:31:42;17.52;;;7.50;;
21128;SDS011;10722;51.910;8.352;2022-07-22T05:34:28;17.73;;;7.28;;
21128;SDS011;10722;51.910;8.352;2022-07-22T05:37:13;16.20;;;8.00;;
21128;SDS011;10722;51.910;8.352;2022-07-22T05:39:59;16.27;;;8.13;;
21128;SDS011;10722;51.910;8.352;2022-07-22T05:42:44;17.23;;;7.90;;
21128;SDS011;10722;51.910;8.352;2022-07-22T05:45:29;19.90;;;8.65;;
21128;SDS011;10722;51.910;8.352;2022-07-22T05:48:14;16.02;;;7.75;;
21128;SDS011;10722;51.910;8.352;2022-07-22T05:51:00;18.23;;;8.68;;
21128;SDS011;10722;51.910;8.352;2022-07-22T05:53:45;20.02;;;8.45;;
21128;SDS011;10722;51.910;8.352;2022-07-22T05:56:31;19.52;;;8.57;;
21128;SDS011;10722;51.910;8.352;2022-07-22T05:59:16;19.08;;;8.07;;
21128;SDS011;10722;51.910;8.352;2022-07-22T06:02:02;15.52;;;7.95;;
21128;SDS011;10722;51.910;8.352;2022-07-22T06:04:47;17.30;;;7.70;;
21128;SDS011;10722;51.910;8.352;2022-07-22T06:07:33;14.48;;;6.45;;
21128;SDS011;10722;51.910;8.352;2022-07-22T06:10:19;15.70;;;7.20;;
21128;SDS011;10722;51.910;8.352;2022-07-22T06:13:04;15.57;;;7.85;;
21128;SDS011;10722;51.910;8.352;2022-07-22T06:15:50;14.10;;;6.93;;
21128;SDS011;10722;51.910;8.352;2022-07-22T06:18:35;13.07;;;5.60;;
21128;SDS011;10722;51.910;8.352;2022-07-22T06:21:21;13.25;;;5.68;;
21128;SDS011;10722;51.910;8.352;2022-07-22T06:24:06;13.65;;;4.82;;
21128;SDS011;10722;51.910;8.352;2022-07-22T06:26:52;13.15;;;4.55;;
21128;SDS011;10722;51.910;8.352;2022-07-22T06:29:37;14.68;;;5.35;;
21128;SDS011;10722;51.910;8.352;2022-07-22T06:32:22;12.95;;;4.53;;
21128;SDS011;10722;51.910;8.352;2022-07-22T06:35:08;12.93;;;4.20;;
21128;SDS011;10722;51.910;8.352;2022-07-22T06:37:53;10.05;;;3.35;;
21128;SDS011;10722;51.910;8.352;2022-07-22T06:40:59;11.85;;;3.78;;
21128;SDS011;10722;51.910;8.352;2022-07-22T06:43:45;9.98;;;3.60;;
21128;SDS011;10722;51.910;8.352;2022-07-22T06:46:31;14.52;;;4.40;;
21128;SDS011;10722;51.910;8.352;2022-07-22T06:49:17;10.05;;;3.90;;
21128;SDS011;10722;51.910;8.352;2022-07-22T06:52:02;15.38;;;4.38;;
21128;SDS011;10722;51.910;8.352;2022-07-22T06:54:48;12.95;;;4.30;;
21128;SDS011;10722;51.910;8.352;2022-07-22T06:57:33;17.65;;;4.70;;
21128;SDS011;10722;51.910;8.352;2022-07-22T07:00:21;15.85;;;4.70;;
21128;SDS011;10722;51.910;8.352;2022-07-22T07:03:53;18.98;;;5.10;;
21128;SDS011;10722;51.910;8.352;2022-07-22T07:06:34;14.25;;;4.65;;
21128;SDS011;10722;51.910;8.352;2022-07-22T07:09:19;18.50;;;5.25;;
21128;SDS011;10722;51.910;8.352;2022-07-22T07:12:05;20.25;;;5.47;;
21128;SDS011;10722;51.910;8.352;2022-07-22T07:18:22;15.55;;;5.13;;
21128;SDS011;10722;51.910;8.352;2022-07-22T07:21:07;23.73;;;5.75;;
21128;SDS011;10722;51.910;8.352;2022-07-22T07:23:53;19.33;;;5.40;;
21128;SDS011;10722;51.910;8.352;2022-07-22T07:26:40;21.27;;;5.18;;
21128;SDS011;10722;51.910;8.352;2022-07-22T07:29:25;20.02;;;6.40;;
21128;SDS011;10722;51.910;8.352;2022-07-22T07:36:19;20.55;;;8.68;;
21128;SDS011;10722;51.910;8.352;2022-07-22T07:39:06;20.90;;;6.97;;
21128;SDS011;10722;51.910;8.352;2022-07-22T07:41:52;20.08;;;6.00;;
21128;SDS011;10722;51.910;8.352;2022-07-22T07:44:39;16.95;;;5.72;;
21128;SDS011;10722;51.910;8.352;2022-07-22T07:47:24;21.52;;;5.95;;
21128;SDS011;10722;51.910;8.352;2022-07-22T07:50:10;18.58;;;5.10;;
21128;SDS011;10722;51.910;8.352;2022-07-22T07:52:55;19.83;;;5.28;;
21128;SDS011;10722;51.910;8.352;2022-07-22T07:55:41;19.80;;;5.50;;
21128;SDS011;10722;51.910;8.352;2022-07-22T07:58:27;17.63;;;4.80;;
21128;SDS011;10722;51.910;8.352;2022-07-22T08:01:22;22.58;;;5.40;;
21128;SDS011;10722;51.910;8.352;2022-07-22T08:07:52;17.05;;;4.70;;
21128;SDS011;10722;51.910;8.352;2022-07-22T08:10:37;17.10;;;4.38;;
21128;SDS011;10722;51.910;8.352;2022-07-22T08:13:41;16.23;;;5.07;;
21128;SDS011;10722;51.910;8.352;2022-07-22T08:16:27;16.13;;;4.53;;
21128;SDS011;10722;51.910;8.352;2022-07-22T08:19:12;20.10;;;5.13;;
21128;SDS011;10722;51.910;8.352;2022-07-22T08:22:00;15.20;;;4.68;;
21128;SDS011;10722;51.910;8.352;2022-07-22T08:24:45;17.67;;;4.70;;
21128;SDS011;10722;51.910;8.352;2022-07-22T08:27:30;16.52;;;4.90;;
21128;SDS011;10722;51.910;8.352;2022-07-22T08:30:16;17.48;;;5.30;;
21128;SDS011;10722;51.910;8.352;2022-07-22T08:33:03;16.90;;;5.38;;
21128;SDS011;10722;51.910;8.352;2022-07-22T08:35:48;18.45;;;5.70;;
21128;SDS011;10722;51.910;8.352;2022-07-22T08:38:33;18.15;;;5.82;;
21128;SDS011;10722;51.910;8.352;2022-07-22T08:41:19;17.10;;;6.43;;
21128;SDS011;10722;51.910;8.352;2022-07-22T08:44:07;16.52;;;6.90;;
21128;SDS011;10722;51.910;8.352;2022-07-22T08:46:55;18.20;;;7.25;;
21128;SDS011;10722;51.910;8.352;2022-07-22T08:49:44;16.63;;;6.78;;
21128;SDS011;10722;51.910;8.352;2022-07-22T08:52:29;15.32;;;7.25;;
21128;SDS011;10722;51.910;8.352;2022-07-22T08:55:15;19.30;;;7.10;;
21128;SDS011;10722;51.910;8.352;2022-07-22T08:58:00;17.13;;;6.95;;
21128;SDS011;10722;51.910;8.352;2022-07-22T09:00:46;18.58;;;7.28;;
21128;SDS011;10722;51.910;8.352;2022-07-22T09:03:31;17.60;;;7.45;;
21128;SDS011;10722;51.910;8.352;2022-07-22T09:06:17;21.00;;;8.15;;
21128;SDS011;10722;51.910;8.352;2022-07-22T09:09:04;15.57;;;7.30;;
21128;SDS011;10722;51.910;8.352;2022-07-22T09:12:05;18.08;;;7.50;;
21128;SDS011;10722;51.910;8.352;2022-07-22T09:14:52;19.45;;;7.75;;
21128;SDS011;10722;51.910;8.352;2022-07-22T09:17:38;16.30;;;7.32;;
21128;SDS011;10722;51.910;8.352;2022-07-22T09:20:24;22.45;;;13.95;;
21128;SDS011;10722;51.910;8.352;2022-07-22T09:23:11;14.32;;;5.10;;
21128;SDS011;10722;51.910;8.352;2022-07-22T09:26:04;16.05;;;4.85;;
21128;SDS011;10722;51.910;8.352;2022-07-22T09:28:55;15.98;;;4.55;;
21128;SDS011;10722;51.910;8.352;2022-07-22T09:31:49;13.45;;;4.20;;
21128;SDS011;10722;51.910;8.352;2022-07-22T09:34:37;12.77;;;3.97;;
21128;SDS011;10722;51.910;8.352;2022-07-22T09:37:22;11.45;;;3.22;;
21128;SDS011;10722;51.910;8.352;2022-07-22T09:40:12;14.35;;;3.60;;
21128;SDS011;10722;51.910;8.352;2022-07-22T09:42:59;9.40;;;3.00;;
21128;SDS011;10722;51.910;8.352;2022-07-22T09:45:51;12.18;;;3.33;;
21128;SDS011;10722;51.910;8.352;2022-07-22T09:48:40;11.73;;;3.60;;
21128;SDS011;10722;51.910;8.352;2022-07-22T09:51:26;12.60;;;3.38;;
21128;SDS011;10722;51.910;8.352;2022-07-22T09:54:11;12.57;;;3.55;;
21128;SDS011;10722;51.910;8.352;2022-07-22T09:56:58;12.02;;;3.05;;
21128;SDS011;10722;51.910;8.352;2022-07-22T09:59:43;12.15;;;3.40;;
21128;SDS011;10722;51.910;8.352;2022-07-22T10:02:28;15.05;;;5.10;;
21128;SDS011;10722;51.910;8.352;2022-07-22T10:05:15;14.23;;;4.35;;
21128;SDS011;10722;51.910;8.352;2022-07-22T10:08:03;12.43;;;3.80;;
21128;SDS011;10722;51.910;8.352;2022-07-22T10:10:50;10.02;;;3.20;;
21128;SDS011;10722;51.910;8.352;2022-07-22T10:13:38;13.23;;;3.42;;
21128;SDS011;10722;51.910;8.352;2022-07-22T10:16:24;11.48;;;3.40;;
21128;SDS011;10722;51.910;8.352;2022-07-22T10:19:09;10.32;;;3.20;;
21128;SDS011;10722;51.910;8.352;2022-07-22T10:21:56;11.73;;;2.90;;
21128;SDS011;10722;51.910;8.352;2022-07-22T10:24:58;10.80;;;3.30;;
21128;SDS011;10722;51.910;8.352;2022-07-22T10:33:24;12.80;;;2.83;;
21128;SDS011;10722;51.910;8.352;2022-07-22T10:36:14;12.43;;;3.17;;
21128;SDS011;10722;51.910;8.352;2022-07-22T10:39:15;9.45;;;2.97;;
21128;SDS011;10722;51.910;8.352;2022-07-22T10:42:00;13.27;;;3.42;;
21128;SDS011;10722;51.910;8.352;2022-07-22T10:44:46;10.43;;;3.30;;
21128;SDS011;10722;51.910;8.352;2022-07-22T10:47:54;12.82;;;3.97;;
21128;SDS011;10722;51.910;8.352;2022-07-22T10:50:41;10.55;;;2.95;;
21128;SDS011;10722;51.910;8.352;2022-07-22T10:53:39;10.18;;;3.45;;
21128;SDS011;10722;51.910;8.352;2022-07-22T10:59:15;9.43;;;3.10;;
21128;SDS011;10722;51.910;8.352;2022-07-22T11:02:01;8.85;;;2.78;;
21128;SDS011;10722;51.910;8.352;2022-07-22T11:04:46;17.88;;;9.15;;
21128;SDS011;10722;51.910;8.352;2022-07-22T11:07:32;8.82;;;2.53;;
21128;SDS011;10722;51.910;8.352;2022-07-22T11:10:18;8.73;;;2.38;;
21128;SDS011;10722;51.910;8.352;2022-07-22T11:13:05;8.57;;;2.67;;
21128;SDS011;10722;51.910;8.352;2022-07-22T11:15:56;9.95;;;2.50;;
21128;SDS011;10722;51.910;8.352;2022-07-22T11:18:45;12.55;;;2.40;;
21128;SDS011;10722;51.910;8.352;2022-07-22T11:21:32;8.73;;;2.50;;
21128;SDS011;10722;51.910;8.352;2022-07-22T11:24:27;8.50;;;2.47;;
21128;SDS011;10722;51.910;8.352;2022-07-22T11:27:14;11.70;;;2.80;;
21128;SDS011;10722;51.910;8.352;2022-07-22T11:30:02;12.52;;;3.00;;
21128;SDS011;10722;51.910;8.352;2022-07-22T11:32:48;12.45;;;2.95;;
21128;SDS011;10722;51.910;8.352;2022-07-22T11:35:34;6.80;;;2.60;;
21128;SDS011;10722;51.910;8.352;2022-07-22T11:38:19;10.57;;;3.25;;
21128;SDS011;10722;51.910;8.352;2022-07-22T11:41:05;9.77;;;2.88;;
21128;SDS011;10722;51.910;8.352;2022-07-22T11:43:50;9.43;;;2.90;;
21128;SDS011;10722;51.910;8.352;2022-07-22T11:46:39;10.85;;;3.20;;
21128;SDS011;10722;51.910;8.352;2022-07-22T11:49:27;12.43;;;3.17;;
21128;SDS011;10722;51.910;8.352;2022-07-22T11:52:17;10.70;;;2.97;;
21128;SDS011;10722;51.910;8.352;2022-07-22T11:55:03;12.30;;;3.50;;
21128;SDS011;10722;51.910;8.352;2022-07-22T11:57:59;11.48;;;3.25;;
21128;SDS011;10722;51.910;8.352;2022-07-22T12:00:45;11.60;;;3.28;;
21128;SDS011;10722;51.910;8.352;2022-07-22T12:03:31;11.90;;;3.40;;
21128;SDS011;10722;51.910;8.352;2022-07-22T12:06:19;11.70;;;3.53;;
21128;SDS011;10722;51.910;8.352;2022-07-22T12:09:09;12.00;;;3.50;;
21128;SDS011;10722;51.910;8.352;2022-07-22T12:12:05;13.07;;;3.78;;
21128;SDS011;10722;51.910;8.352;2022-07-22T12:14:50;10.35;;;3.40;;
21128;SDS011;10722;51.910;8.352;2022-07-22T12:17:42;10.77;;;3.60;;
21128;SDS011;10722;51.910;8.352;2022-07-22T12:20:28;10.88;;;3.35;;
21128;SDS011;10722;51.910;8.352;2022-07-22T12:23:13;9.90;;;3.40;;
21128;SDS011;10722;51.910;8.352;2022-07-22T12:25:59;14.23;;;3.20;;
21128;SDS011;10722;51.910;8.352;2022-07-22T12:28:46;12.85;;;3.40;;
21128;SDS011;10722;51.910;8.352;2022-07-22T12:31:40;8.55;;;3.50;;
21128;SDS011;10722;51.910;8.352;2022-07-22T12:34:30;13.07;;;3.70;;
21128;SDS011;10722;51.910;8.352;2022-07-22T12:37:23;11.00;;;3.50;;
21128;SDS011;10722;51.910;8.352;2022-07-22T12:40:11;15.50;;;3.92;;
21128;SDS011;10722;51.910;8.352;2022-07-22T12:43:09;15.63;;;4.30;;
21128;SDS011;10722;51.910;8.352;2022-07-22T12:45:54;13.60;;;4.05;;
21128;SDS011;10722;51.910;8.352;2022-07-22T12:48:51;14.18;;;3.50;;
21128;SDS011;10722;51.910;8.352;2022-07-22T12:51:39;9.88;;;3.33;;
21128;SDS011;10722;51.910;8.352;2022-07-22T12:54:24;14.98;;;4.45;;
21128;SDS011;10722;51.910;8.352;2022-07-22T12:57:09;11.60;;;3.60;;
21128;SDS011;10722;51.910;8.352;2022-07-22T12:59:55;11.60;;;3.70;;
21128;SDS011;10722;51.910;8.352;2022-07-22T13:02:40;13.90;;;3.78;;
21128;SDS011;10722;51.910;8.352;2022-07-22T13:05:26;15.27;;;4.50;;
21128;SDS011;10722;51.910;8.352;2022-07-22T13:08:12;16.73;;;5.18;;
21128;SDS011;10722;51.910;8.352;2022-07-22T13:10:58;14.98;;;6.38;;
21128;SDS011;10722;51.910;8.352;2022-07-22T13:13:43;15.90;;;6.95;;
21128;SDS011;10722;51.910;8.352;2022-07-22T13:16:28;14.95;;;6.53;;
21128;SDS011;10722;51.910;8.352;2022-07-22T13:19:14;17.00;;;7.60;;
21128;SDS011;10722;51.910;8.352;2022-07-22T13:21:59;18.80;;;8.27;;
21128;SDS011;10722;51.910;8.352;2022-07-22T13:24:45;15.65;;;7.75;;
21128;SDS011;10722;51.910;8.352;2022-07-22T13:27:30;16.20;;;7.50;;
21128;SDS011;10722;51.910;8.352;2022-07-22T13:30:15;19.42;;;8.82;;
21128;SDS011;10722;51.910;8.352;2022-07-22T13:33:02;17.63;;;9.15;;
21128;SDS011;10722;51.910;8.352;2022-07-22T13:35:47;17.80;;;8.95;;
21128;SDS011;10722;51.910;8.352;2022-07-22T13:38:33;19.13;;;8.90;;
21128;SDS011;10722;51.910;8.352;2022-07-22T13:41:18;18.70;;;9.15;;
21128;SDS011;10722;51.910;8.352;2022-07-22T13:44:03;17.98;;;8.85;;
21128;SDS011;10722;51.910;8.352;2022-07-22T13:46:55;18.25;;;8.45;;
21128;SDS011;10722;51.910;8.352;2022-07-22T13:49:41;21.27;;;9.10;;
21128;SDS011;10722;51.910;8.352;2022-07-22T13:52:27;17.92;;;8.68;;
21128;SDS011;10722;51.910;8.352;2022-07-22T13:55:12;17.75;;;8.30;;
21128;SDS011;10722;51.910;8.352;2022-07-22T13:57:58;19.20;;;9.00;;
21128;SDS011;10722;51.910;8.352;2022-07-22T14:00:43;15.50;;;8.30;;
21128;SDS011;10722;51.910;8.352;2022-07-22T14:03:29;19.33;;;8.13;;
21128;SDS011;10722;51.910;8.352;2022-07-22T14:06:14;18.60;;;8.65;;
21128;SDS011;10722;51.910;8.352;2022-07-22T14:08:59;16.27;;;8.05;;
21128;SDS011;10722;51.910;8.352;2022-07-22T14:11:45;18.98;;;8.50;;
21128;SDS011;10722;51.910;8.352;2022-07-22T14:14:30;18.20;;;8.07;;
21128;SDS011;10722;51.910;8.352;2022-07-22T14:17:16;17.80;;;8.32;;
21128;SDS011;10722;51.910;8.352;2022-07-22T14:20:09;15.85;;;8.15;;
21128;SDS011;10722;51.910;8.352;2022-07-22T14:22:55;19.77;;;7.43;;
21128;SDS011;10722;51.910;8.352;2022-07-22T14:25:40;17.42;;;8.07;;
21128;SDS011;10722;51.910;8.352;2022-07-22T14:28:25;18.05;;;8.25;;
21128;SDS011;10722;51.910;8.352;2022-07-22T14:31:20;16.40;;;7.90;;
21128;SDS011;10722;51.910;8.352;2022-07-22T14:34:06;16.13;;;7.88;;
21128;SDS011;10722;51.910;8.352;2022-07-22T14:36:52;18.15;;;7.93;;
21128;SDS011;10722;51.910;8.352;2022-07-22T14:39:37;16.30;;;7.78;;
21128;SDS011;10722;51.910;8.352;2022-07-22T14:42:22;15.48;;;7.55;;
21128;SDS011;10722;51.910;8.352;2022-07-22T14:45:08;19.38;;;7.72;;
21128;SDS011;10722;51.910;8.352;2022-07-22T14:47:53;16.65;;;7.43;;
21128;SDS011;10722;51.910;8.352;2022-07-22T14:50:39;17.05;;;8.18;;
21128;SDS011;10722;51.910;8.352;2022-07-22T14:53:25;15.95;;;8.00;;
21128;SDS011;10722;51.910;8.352;2022-07-22T14:56:09;17.33;;;8.10;;
21128;SDS011;10722;51.910;8.352;2022-07-22T14:58:55;19.67;;;8.23;;
21128;SDS011;10722;51.910;8.352;2022-07-22T15:01:40;15.10;;;7.38;;
21128;SDS011;10722;51.910;8.352;2022-07-22T15:04:26;16.80;;;7.50;;
21128;SDS011;10722;51.910;8.352;2022-07-22T15:07:11;16.98;;;7.38;;
21128;SDS011;10722;51.910;8.352;2022-07-22T15:09:56;16.65;;;6.90;;
21128;SDS011;10722;51.910;8.352;2022-07-22T15:12:41;15.20;;;6.82;;
21128;SDS011;10722;51.910;8.352;2022-07-22T15:15:33;13.02;;;6.45;;
21128;SDS011;10722;51.910;8.352;2022-07-22T15:18:18;15.07;;;5.93;;
21128;SDS011;10722;51.910;8.352;2022-07-22T15:21:03;13.80;;;5.20;;
21128;SDS011;10722;51.910;8.352;2022-07-22T15:23:48;14.57;;;6.43;;
21128;SDS011;10722;51.910;8.352;2022-07-22T15:26:34;16.30;;;6.78;;
21128;SDS011;10722;51.910;8.352;2022-07-22T15:29:19;14.20;;;5.57;;
21128;SDS011;10722;51.910;8.352;2022-07-22T15:32:05;14.30;;;6.00;;
21128;SDS011;10722;51.910;8.352;2022-07-22T15:34:50;14.98;;;5.40;;
21128;SDS011;10722;51.910;8.352;2022-07-22T15:37:35;14.15;;;5.30;;
21128;SDS011;10722;51.910;8.352;2022-07-22T15:40:21;12.45;;;5.07;;
21128;SDS011;10722;51.910;8.352;2022-07-22T15:43:06;16.42;;;5.28;;
21128;SDS011;10722;51.910;8.352;2022-07-22T15:45:51;13.23;;;5.00;;
21128;SDS011;10722;51.910;8.352;2022-07-22T15:48:37;14.20;;;5.07;;
21128;SDS011;10722;51.910;8.352;2022-07-22T15:51:23;13.57;;;4.90;;
21128;SDS011;10722;51.910;8.352;2022-07-22T15:54:09;13.00;;;4.80;;
21128;SDS011;10722;51.910;8.352;2022-07-22T15:56:55;12.13;;;4.30;;
21128;SDS011;10722;51.910;8.352;2022-07-22T15:59:40;13.60;;;5.22;;
21128;SDS011;10722;51.910;8.352;2022-07-22T16:02:25;12.75;;;4.70;;
21128;SDS011;10722;51.910;8.352;2022-07-22T16:05:10;14.18;;;4.95;;
21128;SDS011;10722;51.910;8.352;2022-07-22T16:07:56;12.65;;;4.82;;
21128;SDS011;10722;51.910;8.352;2022-07-22T16:10:42;13.73;;;4.43;;
21128;SDS011;10722;51.910;8.352;2022-07-22T16:13:27;12.50;;;4.50;;
21128;SDS011;10722;51.910;8.352;2022-07-22T16:16:13;12.60;;;4.35;;
21128;SDS011;10722;51.910;8.352;2022-07-22T16:18:58;12.77;;;4.85;;
21128;SDS011;10722;51.910;8.352;2022-07-22T16:21:45;15.15;;;5.00;;
21128;SDS011;10722;51.910;8.352;2022-07-22T16:24:30;12.20;;;4.60;;
21128;SDS011;10722;51.910;8.352;2022-07-22T16:27:15;15.02;;;4.53;;
21128;SDS011;10722;51.910;8.352;2022-07-22T16:30:00;16.10;;;4.55;;
21128;SDS011;10722;51.910;8.352;2022-07-22T16:32:46;13.55;;;4.32;;
21128;SDS011;10722;51.910;8.352;2022-07-22T16:35:35;11.45;;;4.45;;
21128;SDS011;10722;51.910;8.352;2022-07-22T16:38:20;13.43;;;4.57;;
21128;SDS011;10722;51.910;8.352;2022-07-22T16:41:06;15.35;;;5.18;;
21128;SDS011;10722;51.910;8.352;2022-07-22T16:43:51;11.25;;;4.50;;
21128;SDS011;10722;51.910;8.352;2022-07-22T16:46:36;14.65;;;5.03;;
21128;SDS011;10722;51.910;8.352;2022-07-22T16:49:22;19.08;;;7.28;;